METAR Data
IDs: Format: Raw Decoded Include TAF

Data at: 2114 UTC 18 Sep 2018

KBKS 182055Z AUTO 10007KT 10SM SCT048 BKN060 BKN070 33/22 A2989 RMK AO1 T03270222
KBKS 182035Z AUTO 09007KT 080V140 10SM SCT045 SCT060 SCT070 33/22 A2989 RMK AO1 T03300223
KBKS 182015Z AUTO 13005KT 10SM SCT043 34/22 A2990 RMK AO1 T03380224
KBKS 181955Z AUTO 14007KT 10SM SCT043 SCT049 33/22 A2991 RMK AO1 T03330224
KBKS 181935Z AUTO 14004KT 10SM SCT041 SCT049 SCT060 33/23 A2991 RMK AO1 T03310228
KBKS 181915Z AUTO 13006KT 10SM SCT041 SCT050 33/22 A2992 RMK AO1 T03310223
KBKS 181855Z AUTO 12003KT 10SM SCT041 SCT050 33/22 A2993 RMK AO1 T03270218
KBKS 181835Z AUTO 10004KT 10SM SCT041 SCT050 33/23 A2994 RMK AO1 T03250225
KBKS 181815Z AUTO 11003KT 10SM SCT041 SCT050 32/22 A2995 RMK AO1 T03190219
KBKS 181755Z AUTO 15005KT 10SM CLR 32/23 A2996 RMK AO1 T03220226 10325 20250
KBKS 181735Z AUTO 10006KT 10SM SCT030 SCT036 SCT042 32/23 A2997 RMK AO1 T03160230
KBKS 181715Z AUTO 16005KT 10SM SCT030 SCT035 31/24 A2998 RMK AO1 T03140235
KBKS 181655Z AUTO 12006KT 10SM SCT029 SCT035 31/23 A2998 RMK AO1 T03120234
KBKS 181635Z AUTO 13004KT 10SM SCT025 SCT033 31/24 A2998 RMK AO1 T03100239
KBKS 181615Z AUTO 13007KT 10SM SCT023 SCT037 31/24 A2999 RMK AO1 T03060243
KBKS 181555Z AUTO 14006KT 10SM SCT019 SCT024 SCT031 30/25 A2999 RMK AO1 T02990246
KBKS 181535Z AUTO 16005KT 10SM SCT017 SCT024 BKN032 30/25 A2999 RMK AO1 T02970247
KBKS 181515Z AUTO 11006KT 10SM SCT015 SCT020 29/25 A2999 RMK AO1 T02910249
KBKS 181455Z AUTO 14006KT 10SM SCT012 28/25 A2999 RMK AO1 T02810246
KBKS 181435Z AUTO 13003KT 10SM CLR 28/25 A2999 RMK AO1 T02800250
KBKS 181415Z AUTO 11003KT 10SM CLR 27/25 A2998 RMK AO1 T02730250
KBKS 181355Z AUTO 13005KT 10SM CLR 27/25 A2998 RMK AO1 T02650250
KBKS 181335Z AUTO 13004KT 7SM CLR 26/25 A2998 RMK AO1 T02580245
KBKS 181315Z AUTO 11003KT 5SM CLR 26/24 A2998 RMK AO1 T02550242
KBKS 181255Z AUTO 09003KT 5SM CLR 25/24 A2998 RMK AO1 T02500240
KBKS 181235Z AUTO 05004KT 5SM CLR 25/24 A2998 RMK AO1 T02500238
KBKS 181215Z AUTO 00000KT 5SM CLR 25/24 A2997 RMK AO1 T02500237
KBKS 181155Z AUTO 00000KT 7SM CLR 25/24 A2997 RMK AO1 T02510240 10265 20251
KBKS 181135Z AUTO 12003KT 10SM CLR 26/24 A2996 RMK AO1 T02550241
KBKS 181115Z AUTO 00000KT 7SM CLR 25/24 A2996 RMK AO1 T02510240
KBKS 181055Z AUTO 00000KT 7SM CLR 25/24 A2996 RMK AO1 T02530240
KBKS 181035Z AUTO 00000KT 7SM CLR 26/24 A2996 RMK AO1 T02550241
KBKS 181015Z AUTO 00000KT 7SM CLR 26/24 A2996 RMK AO1 T02550241
KBKS 180955Z AUTO 00000KT 10SM CLR 26/24 A2995 RMK AO1 T02550242
KBKS 180935Z AUTO 14003KT 10SM SCT020 SCT026 26/24 A2995 RMK AO1 T02560242
KBKS 180915Z AUTO 00000KT 10SM SCT020 SCT025 26/24 A2995 RMK AO1 T02570244
KBKS 180855Z AUTO 00000KT 7SM BKN020 BKN025 26/25 A2995 RMK AO1 T02570245
KBKS 180835Z AUTO 15003KT 7SM CLR 26/25 A2995 RMK AO1 T02570245
KBKS 180815Z AUTO 15003KT 7SM CLR 26/25 A2996 RMK AO1 T02600247
KBKS 180755Z AUTO 14003KT 7SM CLR 26/25 A2996 RMK AO1 T02600247
KBKS 180735Z AUTO 00000KT 7SM CLR 26/25 A2996 RMK AO1 T02600247
KBKS 180715Z AUTO 00000KT 5SM CLR 26/25 A2996 RMK AO1 T02610249
KBKS 180655Z AUTO 00000KT 7SM SCT018 26/25 A2995 RMK AO1 T02620250
KBKS 180635Z AUTO 00000KT 7SM BKN016 BKN021 26/25 A2996 RMK AO1 T02640250
KBKS 180615Z AUTO 00000KT 7SM BKN014 BKN019 27/25 A2996 RMK AO1 T02650250
KBKS 180555Z AUTO 10003KT 10SM CLR 27/25 A2996 RMK AO1 T02650250 10296 20265 403420240
KBKS 180535Z AUTO 13003KT 10SM CLR 27/25 A2997 RMK AO1 T02660250
KBKS 180515Z AUTO 12004KT 10SM CLR 27/25 A2997 RMK AO1 T02660250
KBKS 180455Z AUTO 11004KT 10SM SCT018 SCT024 SCT029 27/25 A2997 RMK AO1 T02680250
KBKS 180435Z AUTO 11004KT 10SM SCT018 SCT024 SCT029 27/25 A2997 RMK AO1 T02680250
KBKS 180415Z AUTO 11004KT 10SM CLR 27/25 A2997 RMK AO1 T02700250
KBKS 180355Z AUTO 10005KT 7SM CLR 27/25 A2996 RMK AO1 T02700250
KBKS 180335Z AUTO 10003KT 7SM CLR 27/25 A2996 RMK AO1 T02710250
KBKS 180315Z AUTO 09004KT 7SM CLR 27/25 A2996 RMK AO1 T02710250
KBKS 180255Z AUTO 09004KT 7SM CLR 28/25 A2995 RMK AO1 T02750250
KBKS 180235Z AUTO 10005KT 7SM CLR 28/25 A2994 RMK AO1 T02760250
KBKS 180215Z AUTO 10005KT 7SM CLR 28/25 A2994 RMK AO1 T02770250
KBKS 180155Z AUTO 00000KT 7SM CLR 28/25 A2993 RMK AO1 T02800248
KBKS 180135Z AUTO 10005KT 10SM CLR 28/25 A2992 RMK AO1 T02800247
KBKS 180115Z AUTO 10005KT 10SM CLR 28/25 A2991 RMK AO1 T02810246
KBKS 180055Z AUTO 10005KT 10SM CLR 29/25 A2991 RMK AO1 T02850245
KBKS 180035Z AUTO 10005KT 10SM CLR 29/25 A2990 RMK AO1 T02880245
KBKS 180015Z AUTO 10006KT 10SM CLR 29/25 A2989 RMK AO1 T02920245
KBKS 172355Z AUTO 10007G14KT 10SM CLR 30/24 A2988 RMK AO1 T02960242 10342 20296
KBKS 172335Z AUTO 10006KT 10SM CLR 30/24 A2988 RMK AO1 T03010242
KBKS 172315Z AUTO 10008KT 10SM SCT048 SCT060 31/24 A2988 RMK AO1 T03060241
KBKS 172255Z AUTO 10009KT 10SM SCT034 SCT043 SCT050 31/24 A2988 RMK AO1 T03100243
KBKS 172235Z AUTO 10011G15KT 10SM SCT030 SCT040 SCT046 32/24 A2988 RMK AO1 T03150242
KBKS 172215Z AUTO 09010G14KT 10SM SCT035 SCT042 32/24 A2988 RMK AO1 T03160243
KBKS 172155Z AUTO 12009G15KT 10SM SCT038 SCT044 SCT049 32/24 A2987 RMK AO1 T03240237
KBKS 172135Z AUTO 11010KT 10SM SCT043 32/23 A2987 RMK AO1 T03230232
KBKS 172115Z AUTO 11009G15KT 1 3/4SM SCT041 32/23 A2988 RMK AO1 T03230229
KBKS 172055Z AUTO 12012KT 5SM CLR 33/22 A2988 RMK AO1 T03270222
KBKS 172035Z AUTO 13009KT 7SM SCT047 SCT060 33/22 A2989 RMK AO1 T03280221
KBKS 172015Z AUTO 12007KT 4SM SCT047 SCT060 SCT070 33/23 A2990 RMK AO1 T03340227
KBKS 171955Z AUTO 12009KT 10SM SCT049 SCT065 SCT075 34/22 A2990 RMK AO1 T03400220
KBKS 171935Z AUTO 14008KT 7SM SCT047 SCT065 SCT075 34/23 A2991 RMK AO1 T03360225
KBKS 171915Z AUTO 14007KT 7SM SCT050 34/23 A2992 RMK AO1 T03380225
KBKS 171855Z AUTO 14012G17KT 10SM SCT050 33/22 A2993 RMK AO1 T03330223
KBKS 171835Z AUTO 11007KT 4SM SCT040 SCT050 33/23 A2994 RMK AO1 T03290229
KBKS 171815Z AUTO 14008KT 10SM CLR 33/23 A2994 RMK AO1 T03310230
KBKS 171755Z AUTO 14007KT 5SM SCT040 SCT050 32/23 A2995 RMK AO1 T03190231 10320 20245
KBKS 171735Z AUTO 15009KT 3SM SCT033 SCT041 SCT050 32/23 A2996 RMK AO1 T03170226
KBKS 171715Z AUTO 10008KT 2 1/2SM SCT033 BKN041 BKN050 32/24 A2996 RMK AO1 T03190235
KBKS 171655Z AUTO 14009KT 4SM SCT031 SCT037 31/24 A2997 RMK AO1 T03120236
KBKS 171635Z AUTO 14006KT 2SM SCT027 BKN033 31/24 A2997 RMK AO1 T03060237
KBKS 171615Z AUTO 13007KT 4SM SCT023 SCT031 31/24 A2997 RMK AO1 T03080237
KBKS 171555Z AUTO 13009KT 2SM SCT023 BKN028 BKN120 30/24 A2997 RMK AO1 T03030244
KBKS 171535Z AUTO 13007KT 1/2SM SCT017 BKN120 30/25 A2997 RMK AO1 T02970247
KBKS 171515Z AUTO 12006KT 1/2SM OVC120 29/25 A2996 RMK AO1 T02900251
KBKS 171455Z AUTO 11008KT 1/2SM OVC120 29/25 A2996 RMK AO1 T02860251
KBKS 171435Z AUTO 12007KT 1/4SM OVC120 28/25 A2996 RMK AO1 T02840250
KBKS 171415Z AUTO 11006KT 5SM SCT110 28/25 A2995 RMK AO1 T02780250
KBKS 171355Z AUTO 09005KT 7SM SCT110 27/25 A2995 RMK AO1 T02650247
KBKS 171335Z AUTO 09003KT 10SM CLR 26/24 A2994 RMK AO1 T02560242
KBKS 171315Z AUTO 05003KT 10SM CLR 25/24 A2994 RMK AO1 T02510238
KBKS 171255Z AUTO 00000KT 10SM CLR 25/23 A2993 RMK AO1 T02470234
KBKS 171235Z AUTO 00000KT 10SM CLR 25/23 A2993 RMK AO1 T02460232
KBKS 171215Z AUTO 00000KT 10SM CLR 25/23 A2993 RMK AO1 T02450231
KBKS 171155Z AUTO 00000KT 10SM CLR 25/23 A2993 RMK AO1 T02450230 10251 20240
KBKS 171135Z AUTO 00000KT 10SM CLR 25/23 A2992 RMK AO1 T02450230
KBKS 171115Z AUTO 00000KT 10SM CLR 25/23 A2992 RMK AO1 T02450230
KBKS 171055Z AUTO 00000KT 7SM CLR 24/23 A2991 RMK AO1 T02430230
KBKS 171035Z AUTO 00000KT 10SM CLR 24/23 A2991 RMK AO1 T02420229
KBKS 171015Z AUTO 07003KT 10SM CLR 24/23 A2991 RMK AO1 T02410227
KBKS 170955Z AUTO 00000KT 10SM CLR 24/23 A2991 RMK AO1 T02410227
KBKS 170935Z AUTO 00000KT 10SM CLR 24/23 A2991 RMK AO1 T02420228
KBKS 170915Z AUTO 00000KT 10SM CLR 24/23 A2991 RMK AO1 T02420228